Time;durP1;ratioP1;P1;durP2;ratioP2;P2;SDS_P1;SDS_P2;PMS_P1;PMS_P2;Temp;Humidity;BMP_temperature;BMP_pressure;BME280_temperature;BME280_humidity;BME280_pressure;Samples;Min_cycle;Max_cycle;Signal;HPM_P1;HPM_P2
2021/08/12 00:02:09;;;;;;;5.40;3.38;;;;;;;20.89;40.47;101559.50;3555818;40;20077;-73
2021/08/12 00:04:37;;;;;;;5.85;3.90;;;;;;;20.86;40.83;101555.13;3551694;40;20057;-72
2021/08/12 00:07:05;;;;;;;5.50;3.35;;;;;;;20.86;40.73;101557.06;3550787;40;20061;-73
2021/08/12 00:09:34;;;;;;;6.43;3.90;;;;;;;20.85;40.92;101555.31;3548236;40;20431;-72
2021/08/12 00:12:03;;;;;;;6.18;3.90;;;;;;;20.83;40.80;101554.66;3550544;40;20159;-73
2021/08/12 00:14:32;;;;;;;5.07;4.10;;;;;;;20.84;40.71;101553.59;3554098;40;20062;-72
2021/08/12 00:17:00;;;;;;;5.93;4.25;;;;;;;20.79;40.80;101548.59;3547458;40;20497;-73
2021/08/12 00:19:28;;;;;;;5.20;3.75;;;;;;;20.79;40.69;101543.03;3555710;40;20512;-73
2021/08/12 00:21:56;;;;;;;7.47;3.90;;;;;;;20.77;40.63;101550.69;3556210;40;20081;-72
2021/08/12 00:24:24;;;;;;;5.50;3.95;;;;;;;20.75;41.21;101558.31;3552747;40;20049;-72
2021/08/12 00:26:52;;;;;;;6.32;4.38;;;;;;;20.72;40.70;101550.38;3552830;40;20034;-72
2021/08/12 00:29:20;;;;;;;6.13;3.85;;;;;;;20.71;40.67;101559.75;3557063;40;20041;-72
2021/08/12 00:31:49;;;;;;;6.45;3.97;;;;;;;20.71;40.91;101565.31;3557157;40;20564;-72
2021/08/12 00:34:17;;;;;;;6.57;4.10;;;;;;;20.67;40.97;101561.16;3551844;40;20034;-72
2021/08/12 00:36:45;;;;;;;6.70;4.03;;;;;;;20.66;41.04;101562.22;3558596;40;20143;-75
2021/08/12 00:39:14;;;;;;;6.38;3.85;;;;;;;20.63;40.81;101555.09;3552592;40;20132;-72
2021/08/12 00:41:41;;;;;;;6.22;4.00;;;;;;;20.62;41.05;101555.28;3550568;40;20058;-72
2021/08/12 00:44:12;;;;;;;5.80;3.83;;;;;;;20.59;41.08;101556.50;3546698;40;20042;-72
2021/08/12 00:46:40;;;;;;;6.03;4.18;;;;;;;20.58;40.88;101549.19;3561337;40;20373;-72
2021/08/12 00:49:15;;;;;;;6.22;4.22;;;;;;;20.59;40.85;101553.72;3554325;40;20209;-72
2021/08/12 00:51:47;;;;;;;8.60;4.10;;;;;;;20.56;40.85;101556.88;3552463;40;20171;-73
2021/08/12 00:54:16;;;;;;;6.55;3.92;;;;;;;20.54;41.17;101552.53;3549525;40;20078;-72
2021/08/12 00:56:45;;;;;;;6.45;3.78;;;;;;;20.52;40.94;101549.06;3554599;40;20062;-72
2021/08/12 00:59:12;;;;;;;6.05;3.90;;;;;;;20.51;40.75;101550.13;3563052;40;20046;-72
2021/08/12 01:01:41;;;;;;;7.50;3.97;;;;;;;20.49;41.06;101541.97;3549868;40;20054;-73
2021/08/12 01:04:10;;;;;;;6.32;4.10;;;;;;;20.48;40.83;101544.94;3554653;40;20065;-73
2021/08/12 01:06:53;;;;;;;7.47;4.22;;;;;;;20.49;40.87;101547.53;3562322;40;20075;-72
2021/08/12 01:09:32;;;;;;;7.43;4.40;;;;;;;20.46;40.91;101550.66;3551920;40;20034;-72
2021/08/12 01:12:06;;;;;;;6.50;4.30;;;;;;;20.44;41.25;101554.66;3551908;40;20058;-73
2021/08/12 01:14:44;;;;;;;7.75;4.30;;;;;;;20.43;41.30;101544.59;3556229;40;20135;-72
2021/08/12 01:17:19;;;;;;;5.82;3.90;;;;;;;20.42;41.40;101559.56;3547851;40;20437;-72
2021/08/12 01:20:13;;;;;;;6.72;4.28;;;;;;;20.37;41.08;101551.75;3558529;40;20053;-73
2021/08/12 01:22:46;;;;;;;6.50;4.35;;;;;;;20.38;41.25;101558.19;3553750;40;20042;-72
2021/08/12 01:25:20;;;;;;;8.95;4.50;;;;;;;20.35;41.14;101555.75;3553513;40;20347;-72
2021/08/12 01:27:51;;;;;;;7.40;4.10;;;;;;;20.34;41.55;101559.59;3553905;40;20066;-72
2021/08/12 01:30:25;;;;;;;8.23;4.30;;;;;;;20.30;41.08;101557.16;3546254;40;20042;-73
2021/08/12 01:33:04;;;;;;;8.95;4.57;;;;;;;20.30;41.21;101562.72;3552375;40;20038;-72
2021/08/12 01:35:37;;;;;;;8.57;4.63;;;;;;;20.27;41.25;101559.41;3552605;40;20045;-72
2021/08/12 01:38:08;;;;;;;7.68;4.60;;;;;;;20.23;41.64;101550.59;3550679;40;20124;-72
2021/08/12 01:42:43;;;;;;;5.65;3.47;;;;;;;20.21;41.57;101552.69;2634361;36;20368;-69
2021/08/12 01:45:17;;;;;;;6.03;4.07;;;;;;;20.21;41.57;101535.16;2614580;54;20976;-68
2021/08/12 01:47:51;;;;;;;6.35;3.95;;;;;;;20.16;41.56;101540.34;2629553;36;20074;-69
2021/08/12 01:50:22;;;;;;;6.70;3.85;;;;;;;20.14;41.50;101540.53;2613716;38;20482;-69
2021/08/12 01:52:54;;;;;;;7.22;4.22;;;;;;;20.12;41.61;101533.41;2632638;36;20464;-68
2021/08/12 01:55:28;;;;;;;8.60;4.63;;;;;;;20.08;41.74;101521.81;2614555;54;20035;-69
2021/08/12 01:58:02;;;;;;;6.68;4.30;;;;;;;20.05;41.58;101524.06;2629359;36;20034;-69
2021/08/12 02:00:33;;;;;;;7.65;4.65;;;;;;;20.01;41.88;101517.16;2613009;54;20065;-69
2021/08/12 02:03:09;;;;;;;7.80;4.07;;;;;;;20.00;41.97;101530.16;2631983;36;20065;-69
2021/08/12 02:05:41;;;;;;;6.50;4.07;;;;;;;19.98;41.71;101536.94;2614139;54;20042;-69
2021/08/12 02:08:11;;;;;;;8.13;4.30;;;;;;;19.96;41.57;101545.44;2630063;36;20776;-69
2021/08/12 02:10:43;;;;;;;7.10;4.03;;;;;;;19.97;41.75;101547.16;2616150;38;20432;-69
2021/08/12 02:13:14;;;;;;;6.82;4.47;;;;;;;19.96;41.33;101553.75;2634214;36;20185;-69
2021/08/12 02:15:45;;;;;;;7.32;4.18;;;;;;;19.92;41.40;101556.00;2614362;54;20038;-69
2021/08/12 02:18:15;;;;;;;5.88;3.92;;;;;;;19.92;41.77;101550.47;2631471;36;20049;-69
2021/08/12 02:20:49;;;;;;;6.60;4.00;;;;;;;19.93;41.37;101554.09;2613981;54;20666;-69
2021/08/12 02:23:26;;;;;;;6.47;3.97;;;;;;;19.94;42.41;101542.81;2632900;36;20050;-69
2021/08/12 02:26:00;;;;;;;7.43;4.00;;;;;;;19.91;41.83;101540.44;2612191;54;20058;-69
2021/08/12 02:28:33;;;;;;;6.22;4.10;;;;;;;19.89;42.02;101523.06;2634067;36;20193;-68
2021/08/12 02:31:06;;;;;;;6.15;4.03;;;;;;;19.86;42.15;101526.19;2613831;54;20038;-69
2021/08/12 02:33:38;;;;;;;5.85;3.80;;;;;;;19.83;41.95;101529.34;2633547;36;20039;-69
2021/08/12 02:36:09;;;;;;;6.07;3.88;;;;;;;19.81;42.39;101523.09;2611634;47;20057;-69
2021/08/12 02:38:41;;;;;;;5.68;3.83;;;;;;;19.80;42.40;101524.13;2631788;36;20070;-69
2021/08/12 02:41:16;;;;;;;6.88;4.45;;;;;;;19.78;42.62;101526.22;2614572;54;20089;-69
2021/08/12 02:43:50;;;;;;;6.53;3.90;;;;;;;19.75;42.20;101537.69;2635355;36;20056;-67
2021/08/12 02:46:27;;;;;;;6.55;3.63;;;;;;;19.73;42.59;101531.44;2616414;54;20037;-69
2021/08/12 02:48:58;;;;;;;5.13;3.67;;;;;;;19.69;42.41;101538.38;2635180;36;20031;-68
2021/08/12 02:51:29;;;;;;;6.50;3.80;;;;;;;19.69;42.30;101543.91;2616069;54;20041;-66
2021/08/12 02:54:00;;;;;;;5.45;3.75;;;;;;;19.68;42.57;101544.94;2631336;36;20586;-69
2021/08/12 02:56:30;;;;;;;5.53;3.78;;;;;;;19.67;42.41;101551.56;2612999;54;20548;-69
2021/08/12 02:59:02;;;;;;;5.55;3.75;;;;;;;19.67;42.59;101543.25;2631973;31;20473;-66
2021/08/12 03:01:33;;;;;;;8.30;4.25;;;;;;;19.62;42.63;101540.13;2612615;54;20042;-68
2021/08/12 03:04:04;;;;;;;6.68;3.85;;;;;;;19.61;42.51;101545.84;2630820;36;20038;-68
2021/08/12 03:06:36;;;;;;;6.47;4.22;;;;;;;19.60;43.11;101536.63;2611753;54;20038;-68
2021/08/12 03:09:06;;;;;;;7.07;4.80;;;;;;;19.55;43.06;101528.84;2630633;36;20034;-68
2021/08/12 03:11:37;;;;;;;7.13;4.82;;;;;;;19.56;42.91;101527.81;2612704;54;20035;-67
2021/08/12 03:14:09;;;;;;;8.18;5.45;;;;;;;19.55;43.06;101530.75;2631564;36;20030;-67
2021/08/12 03:16:41;;;;;;;8.40;5.00;;;;;;;19.49;43.61;101517.56;2612201;54;20062;-68
2021/08/12 03:19:11;;;;;;;7.75;4.85;;;;;;;19.48;43.37;101524.16;2631517;36;20183;-68
2021/08/12 03:22:00;;;;;;;7.13;4.80;;;;;;;19.47;43.65;101526.06;2612972;54;20038;-68
2021/08/12 03:24:31;;;;;;;7.90;4.07;;;;;;;19.45;42.99;101525.34;2631028;36;20046;-67
2021/08/12 03:27:01;;;;;;;7.00;5.10;;;;;;;19.43;43.30;101527.44;2631563;36;20041;-68
2021/08/12 03:29:33;;;;;;;7.68;4.40;;;;;;;19.45;43.47;101530.03;2612226;54;20030;-66
2021/08/12 03:32:03;;;;;;;6.80;4.37;;;;;;;19.41;43.00;101534.22;2631689;36;20129;-68
2021/08/12 03:34:33;;;;;;;6.75;4.15;;;;;;;19.43;42.96;101538.53;2613262;54;20046;-69
2021/08/12 03:37:03;;;;;;;6.28;4.38;;;;;;;19.43;42.95;101529.38;2631060;36;20038;-69
2021/08/12 03:39:36;;;;;;;7.15;3.97;;;;;;;19.43;43.34;101538.53;2613087;54;20034;-68
2021/08/12 03:42:07;;;;;;;6.20;4.00;;;;;;;19.44;43.07;101540.25;2631294;36;20041;-66
2021/08/12 03:44:38;;;;;;;7.25;3.80;;;;;;;19.45;42.87;101546.69;2612564;54;20039;-67
2021/08/12 03:47:08;;;;;;;5.75;3.72;;;;;;;19.44;43.37;101543.03;2631597;36;20035;-69
2021/08/12 03:49:39;;;;;;;5.68;3.85;;;;;;;19.43;43.15;101540.47;2613312;54;20042;-68
2021/08/12 03:52:10;;;;;;;6.53;3.90;;;;;;;19.43;43.06;101544.06;2631749;36;20038;-65
2021/08/12 03:54:40;;;;;;;6.45;3.50;;;;;;;19.42;43.27;101547.06;2612834;54;20035;-69
2021/08/12 03:57:10;;;;;;;6.55;4.22;;;;;;;19.42;43.08;101547.06;2631715;36;20527;-69
2021/08/12 03:59:42;;;;;;;6.28;4.00;;;;;;;19.43;43.25;101552.41;2612566;54;20034;-67
2021/08/12 04:02:12;;;;;;;8.10;4.00;;;;;;;19.40;42.94;101547.22;2630959;36;20034;-68
2021/08/12 04:04:42;;;;;;;6.53;4.32;;;;;;;19.41;43.14;101550.84;2612131;49;20142;-68
2021/08/12 04:07:11;;;;;;;6.53;4.30;;;;;;;19.41;43.37;101556.41;2631616;36;20035;-67
2021/08/12 04:09:42;;;;;;;5.95;4.25;;;;;;;19.40;43.33;101558.31;2612344;54;20031;-69
2021/08/12 04:12:13;;;;;;;5.10;3.92;;;;;;;19.40;42.95;101554.66;2631824;36;20551;-69
2021/08/12 04:14:44;;;;;;;7.60;4.13;;;;;;;19.40;43.63;101551.91;2612856;54;20030;-68
2021/08/12 04:17:14;;;;;;;7.30;4.50;;;;;;;19.37;43.46;101538.34;2631075;36;20058;-66
2021/08/12 04:19:44;;;;;;;6.88;4.13;;;;;;;19.36;43.90;101542.16;2612728;54;20062;-66
2021/08/12 04:22:14;;;;;;;5.47;4.25;;;;;;;19.35;43.82;101534.91;2631520;36;20987;-68
2021/08/12 04:24:44;;;;;;;5.88;4.00;;;;;;;19.34;43.84;101542.38;2612537;54;20034;-68
2021/08/12 04:27:14;;;;;;;6.82;3.80;;;;;;;19.31;43.55;101539.06;2631732;36;20046;-67
2021/08/12 04:29:45;;;;;;;8.05;4.80;;;;;;;19.33;43.56;101551.72;2612548;51;20041;-68
2021/08/12 04:32:15;;;;;;;7.32;4.43;;;;;;;19.30;43.75;101540.09;2631908;36;20058;-68
2021/08/12 04:34:45;;;;;;;7.00;4.20;;;;;;;19.29;43.70;101550.31;2612501;54;20081;-69
2021/08/12 04:37:15;;;;;;;6.63;4.20;;;;;;;19.28;43.67;101544.94;2631623;36;20035;-68
2021/08/12 04:39:45;;;;;;;6.50;4.00;;;;;;;19.26;43.78;101547.91;2612394;47;20045;-68
2021/08/12 04:42:18;;;;;;;6.43;4.38;;;;;;;19.25;43.78;101546.19;2631175;36;23061;-69
2021/08/12 04:44:50;;;;;;;6.97;4.20;;;;;;;19.28;43.37;101558.81;2612856;54;20085;-68
2021/08/12 04:47:19;;;;;;;6.38;4.45;;;;;;;19.25;43.87;101557.28;2632170;36;20019;-68
2021/08/12 04:49:49;;;;;;;5.85;4.03;;;;;;;19.25;43.81;101556.41;2612427;54;20035;-65
2021/08/12 04:52:19;;;;;;;6.43;4.38;;;;;;;19.25;44.04;101550.84;2631919;36;20668;-66
2021/08/12 04:54:49;;;;;;;6.72;4.13;;;;;;;19.23;43.85;101548.25;2612595;54;20564;-66
2021/08/12 04:57:20;;;;;;;7.82;4.43;;;;;;;19.23;43.52;101556.56;2631339;36;20026;-66
2021/08/12 04:59:52;;;;;;;4.97;3.80;;;;;;;19.24;43.75;101561.09;2612505;51;20030;-67
2021/08/12 05:02:22;;;;;;;6.30;4.35;;;;;;;19.21;43.87;101553.09;2632522;36;20030;-67
2021/08/12 05:04:52;;;;;;;7.45;4.60;;;;;;;19.22;44.25;101553.97;2612849;54;20035;-66
2021/08/12 05:07:22;;;;;;;7.07;5.00;;;;;;;19.22;44.15;101563.16;2632123;36;21000;-66
2021/08/12 05:09:52;;;;;;;5.55;3.92;;;;;;;19.21;43.86;101561.41;2613113;39;20493;-68
2021/08/12 05:12:22;;;;;;;5.70;4.25;;;;;;;19.20;43.87;101571.63;2632060;36;20064;-65
2021/08/12 05:14:53;;;;;;;6.25;4.80;;;;;;;19.22;44.22;101565.94;2612828;54;20074;-66
2021/08/12 05:17:23;;;;;;;6.60;4.13;;;;;;;19.20;44.11;101571.63;2632126;36;20037;-68
2021/08/12 05:19:53;;;;;;;6.45;4.57;;;;;;;19.21;43.63;101572.50;2612590;54;20034;-68
2021/08/12 05:22:24;;;;;;;7.55;4.70;;;;;;;19.20;44.64;101571.63;2631632;36;20626;-68
2021/08/12 05:24:55;;;;;;;6.65;4.60;;;;;;;19.19;44.30;101574.59;2612637;47;20034;-65
2021/08/12 05:27:26;;;;;;;6.55;4.53;;;;;;;19.20;44.30;101577.19;2631896;36;20618;-68
2021/08/12 05:29:57;;;;;;;6.10;4.55;;;;;;;19.24;44.39;101582.41;2612824;39;20472;-67
2021/08/12 05:32:30;;;;;;;6.30;4.22;;;;;;;19.23;44.71;101583.44;2632631;36;20424;-68
2021/08/12 05:34:59;;;;;;;5.75;4.22;;;;;;;19.24;44.70;101577.72;2613018;47;20034;-67
2021/08/12 05:37:29;;;;;;;6.78;4.53;;;;;;;19.28;44.32;101578.22;2632038;36;20145;-67
2021/08/12 05:39:59;;;;;;;7.00;4.30;;;;;;;19.30;45.04;101574.25;2612681;54;20038;-67
2021/08/12 05:42:31;;;;;;;6.35;4.38;;;;;;;19.33;44.62;101585.03;2631925;36;20035;-66
2021/08/12 05:45:02;;;;;;;6.40;4.68;;;;;;;19.42;45.02;101577.56;2612685;54;20973;-64
2021/08/12 05:47:32;;;;;;;7.25;4.82;;;;;;;19.45;44.88;101585.53;2632174;36;20037;-66
2021/08/12 05:50:03;;;;;;;7.35;4.93;;;;;;;19.49;45.05;101575.84;2613670;54;20040;-66
2021/08/12 05:52:33;;;;;;;6.18;4.70;;;;;;;19.53;45.01;101582.78;2633287;36;20061;-66
2021/08/12 05:55:03;;;;;;;7.57;4.72;;;;;;;19.56;44.65;101571.34;2613933;54;20926;-66
2021/08/12 05:57:33;;;;;;;7.13;4.70;;;;;;;19.60;44.98;101571.84;2632934;36;20082;-66
2021/08/12 06:00:04;;;;;;;7.18;4.57;;;;;;;19.65;44.74;101577.75;2611670;51;20034;-66
2021/08/12 06:02:44;;;;;;;8.43;4.63;;;;;;;19.62;44.50;101569.78;2630799;36;20069;-66
2021/08/12 06:05:21;;;;;;;6.43;4.20;;;;;;;19.66;44.26;101568.41;2612100;54;20061;-66
2021/08/12 06:07:52;;;;;;;6.88;4.80;;;;;;;19.69;44.52;101570.81;2628213;36;20152;-66
2021/08/12 06:10:22;;;;;;;6.47;4.57;;;;;;;19.70;44.54;101572.53;2612123;54;20030;-66
2021/08/12 06:12:53;;;;;;;7.72;4.55;;;;;;;19.70;44.72;101569.78;2632483;36;20046;-66
2021/08/12 06:15:26;;;;;;;6.07;4.47;;;;;;;19.70;44.45;101567.84;2612564;47;20038;-66
2021/08/12 06:17:56;;;;;;;6.82;4.95;;;;;;;19.68;44.30;101571.88;2632663;36;20268;-66
2021/08/12 06:20:26;;;;;;;6.93;4.82;;;;;;;19.71;44.21;101572.38;2613147;54;20544;-67
2021/08/12 06:22:56;;;;;;;7.32;4.93;;;;;;;19.72;44.81;101578.78;2633711;36;20576;-67
2021/08/12 06:25:26;;;;;;;7.13;5.00;;;;;;;19.72;44.83;101585.22;2613043;54;20883;-66
2021/08/12 06:27:56;;;;;;;7.22;4.93;;;;;;;19.73;44.50;101584.19;2633395;36;20038;-66
2021/08/12 06:30:27;;;;;;;6.50;4.60;;;;;;;19.76;44.99;101578.25;2614511;54;20039;-66
2021/08/12 06:32:57;;;;;;;6.22;4.40;;;;;;;19.76;45.20;101583.81;2634083;36;20932;-66
2021/08/12 06:35:31;;;;;;;5.95;4.45;;;;;;;19.79;44.84;101585.38;2613718;54;20030;-66
2021/08/12 06:38:01;;;;;;;7.60;4.95;;;;;;;19.81;45.41;101581.38;2632727;36;20039;-66
2021/08/12 06:40:33;;;;;;;7.63;5.68;;;;;;;19.85;45.85;101570.78;2613636;54;20034;-66
2021/08/12 06:43:04;;;;;;;7.05;5.30;;;;;;;19.89;45.51;101567.50;2633576;36;20491;-66
2021/08/12 06:45:51;;;;;;;9.07;5.20;;;;;;;19.94;45.39;101566.94;2613715;54;20035;-66
2021/08/12 06:48:21;;;;;;;7.40;4.97;;;;;;;19.97;45.25;101561.06;2633941;36;20895;-66
2021/08/12 06:50:52;;;;;;;9.85;5.70;;;;;;;20.02;45.34;101571.63;2613902;54;20921;-66
2021/08/12 06:53:22;;;;;;;8.20;5.55;;;;;;;20.05;45.43;101572.13;2633634;36;20034;-66
2021/08/12 06:55:53;;;;;;;7.75;5.45;;;;;;;20.10;45.81;101574.38;2612957;46;20054;-66
2021/08/12 06:58:23;;;;;;;7.93;5.95;;;;;;;20.13;46.07;101572.13;2632345;36;20039;-69
2021/08/12 07:00:54;;;;;;;9.00;5.90;;;;;;;20.19;45.42;101568.63;2612062;54;20038;-71
2021/08/12 07:03:25;;;;;;;7.60;5.53;;;;;;;20.20;45.34;101572.25;2634611;36;21418;-67
2021/08/12 07:05:55;;;;;;;8.15;5.32;;;;;;;20.25;45.52;101573.50;2616220;47;20643;-71
2021/08/12 07:08:25;;;;;;;7.07;5.30;;;;;;;20.28;45.32;101575.91;2629814;36;20050;-71
2021/08/12 07:10:56;;;;;;;8.73;5.47;;;;;;;20.33;45.37;101575.41;2610779;47;20049;-68
2021/08/12 07:13:26;;;;;;;9.07;5.95;;;;;;;20.37;45.38;101579.53;2631054;36;20105;-71
2021/08/12 07:16:02;;;;;;;8.55;5.07;;;;;;;20.43;45.35;101577.94;2614143;47;20034;-71
2021/08/12 07:18:34;;;;;;;7.18;4.90;;;;;;;20.42;45.48;101579.84;2614484;54;20945;-72
2021/08/12 07:21:05;;;;;;;8.35;5.72;;;;;;;20.44;45.29;101577.78;2613830;54;20065;-71
2021/08/12 07:23:34;;;;;;;7.88;5.70;;;;;;;20.47;45.13;101571.88;2615165;47;20555;-72
2021/08/12 07:26:04;;;;;;;7.95;5.72;;;;;;;20.49;44.92;101571.69;2615519;54;20066;-71
2021/08/12 07:28:34;;;;;;;8.02;5.80;;;;;;;20.49;45.39;101575.34;2634882;36;20042;-72
2021/08/12 07:31:05;;;;;;;10.80;5.78;;;;;;;20.54;44.85;101574.78;2616160;47;20033;-72
2021/08/12 07:33:35;;;;;;;9.18;5.78;;;;;;;20.54;45.41;101572.88;2668678;36;20088;-72
2021/08/12 07:36:06;;;;;;;9.65;6.57;;;;;;;20.59;45.50;101569.53;2615892;54;20194;-72
2021/08/12 07:38:37;;;;;;;10.15;6.35;;;;;;;20.64;45.12;101578.22;2613225;47;20042;-72
2021/08/12 07:41:08;;;;;;;9.00;5.93;;;;;;;20.68;45.40;101577.66;2611743;47;20046;-73
2021/08/12 07:43:38;;;;;;;8.57;5.75;;;;;;;20.74;45.64;101573.31;2631612;36;20039;-71
2021/08/12 07:46:10;;;;;;;7.95;6.10;;;;;;;20.82;46.13;101581.59;2611985;47;20034;-72
2021/08/12 07:48:42;;;;;;;8.38;6.40;;;;;;;20.88;45.66;101580.00;2631931;36;20456;-73
2021/08/12 07:51:11;;;;;;;8.43;5.68;;;;;;;20.95;45.62;101583.81;2611949;54;20038;-72
2021/08/12 07:53:41;;;;;;;8.27;6.15;;;;;;;21.02;45.70;101588.44;2631931;36;20038;-71
2021/08/12 07:56:11;;;;;;;9.50;6.10;;;;;;;21.08;45.29;101586.84;2611882;54;20038;-71
2021/08/12 07:58:41;;;;;;;9.40;6.38;;;;;;;21.15;45.43;101584.22;2631467;36;20034;-71
2021/08/12 08:01:17;;;;;;;7.25;5.32;;;;;;;21.25;45.21;101582.03;2612164;54;20654;-71
2021/08/12 08:03:48;;;;;;;7.85;5.82;;;;;;;21.29;45.90;101575.91;2664900;36;20035;-71
2021/08/12 08:06:18;;;;;;;8.15;5.85;;;;;;;21.37;45.56;101575.84;2610927;54;20038;-73
2021/08/12 08:08:48;;;;;;;8.70;6.18;;;;;;;21.43;46.04;101577.88;2610508;54;20038;-72
2021/08/12 08:11:20;;;;;;;8.40;6.40;;;;;;;21.51;45.72;101579.72;2611436;54;20170;-72
2021/08/12 08:13:50;;;;;;;9.90;6.50;;;;;;;21.57;45.35;101580.97;2611164;54;20039;-72
2021/08/12 08:16:22;;;;;;;8.05;5.97;;;;;;;21.67;45.05;101584.31;2612079;54;20045;-73
2021/08/12 08:18:52;;;;;;;10.30;7.20;;;;;;;21.70;45.25;101584.81;2612941;54;20045;-73
2021/08/12 08:21:26;;;;;;;8.45;6.25;;;;;;;21.76;45.31;101585.97;2612715;39;20448;-73
2021/08/12 08:23:55;;;;;;;8.50;6.32;;;;;;;21.81;45.03;101592.75;2632245;36;20599;-72
2021/08/12 08:26:25;;;;;;;9.13;6.20;;;;;;;21.88;45.30;101589.19;2612825;54;20068;-73
2021/08/12 08:28:55;;;;;;;8.60;6.88;;;;;;;21.94;45.01;101589.28;2632398;36;20042;-71
2021/08/12 08:31:26;;;;;;;8.68;6.35;;;;;;;22.02;44.75;101597.56;2613019;54;20038;-71
2021/08/12 08:33:57;;;;;;;9.18;6.30;;;;;;;22.08;44.56;101598.72;2632643;36;20038;-72
2021/08/12 08:36:27;;;;;;;9.85;6.97;;;;;;;22.15;44.67;101599.69;2612955;54;20045;-72
2021/08/12 08:38:57;;;;;;;9.23;6.15;;;;;;;22.23;44.70;101594.06;2612743;54;20045;-73
2021/08/12 08:41:27;;;;;;;12.82;7.18;;;;;;;22.31;44.62;101604.28;2613227;54;20038;-72
2021/08/12 08:43:59;;;;;;;8.30;5.93;;;;;;;22.38;44.73;101608.00;2612957;54;20034;-72
2021/08/12 08:46:30;;;;;;;9.93;5.78;;;;;;;22.46;44.77;101608.78;2613204;39;20467;-72
2021/08/12 08:49:05;;;;;;;7.88;5.93;;;;;;;22.57;44.71;101608.28;2612866;54;20073;-72
2021/08/12 08:51:36;;;;;;;9.63;6.00;;;;;;;22.66;44.45;101610.97;2613084;54;20041;-73
2021/08/12 08:54:07;;;;;;;9.73;6.73;;;;;;;22.73;43.83;101609.13;2632164;36;20042;-72
2021/08/12 08:56:39;;;;;;;9.20;6.70;;;;;;;22.81;43.80;101595.94;2613138;54;20046;-72
2021/08/12 08:59:10;;;;;;;10.65;5.97;;;;;;;22.90;43.93;101599.50;2632385;36;20030;-73
2021/08/12 09:01:42;;;;;;;8.73;5.50;;;;;;;23.00;44.03;101605.66;2613159;39;20441;-73
2021/08/12 09:04:12;;;;;;;;;;;;;;;22.75;44.63;101601.44;2632890;36;20038;-73
2021/08/12 09:06:41;;;;;;;7.70;5.07;;;;;;;23.09;43.79;101607.25;2612600;54;20444;-73
2021/08/12 09:09:12;;;;;;;7.68;5.43;;;;;;;23.23;43.59;101603.53;2632375;36;20061;-73
2021/08/12 09:11:42;;;;;;;8.68;6.25;;;;;;;23.32;43.68;101607.94;2612735;54;20039;-75
2021/08/12 09:14:38;;;;;;;7.90;5.35;;;;;;;23.43;42.92;101600.97;2633175;36;20439;-71
2021/08/12 09:17:26;;;;;;;7.72;5.72;;;;;;;23.51;42.78;101605.59;2632523;36;20125;-72
2021/08/12 09:20:02;;;;;;;7.88;5.18;;;;;;;23.60;42.41;101601.59;2612371;54;20038;-70
2021/08/12 09:22:48;;;;;;;7.15;4.97;;;;;;;23.68;42.76;101624.69;2632974;36;20038;-72
2021/08/12 09:25:19;;;;;;;7.82;5.72;;;;;;;23.75;42.93;101613.56;2612525;54;20045;-72
2021/08/12 09:27:49;;;;;;;9.50;5.95;;;;;;;23.80;43.00;101615.72;2613082;54;20038;-72
2021/08/12 09:30:19;;;;;;;7.47;5.70;;;;;;;23.91;42.57;101606.81;2612842;54;20065;-72
2021/08/12 09:32:52;;;;;;;7.53;5.50;;;;;;;24.02;41.99;101611.84;2632980;36;20034;-71
2021/08/12 09:35:26;;;;;;;7.20;4.97;;;;;;;24.09;41.70;101606.34;2612457;54;20046;-72
2021/08/12 09:38:09;;;;;;;7.68;4.57;;;;;;;24.18;41.32;101597.59;2633093;36;20088;-72
2021/08/12 09:40:39;;;;;;;6.70;4.97;;;;;;;24.22;41.79;101590.53;2612260;54;20043;-72
2021/08/12 09:43:11;;;;;;;6.93;4.50;;;;;;;24.30;42.10;101587.56;2661076;36;20042;-72
2021/08/12 09:45:42;;;;;;;8.65;5.22;;;;;;;24.36;41.71;101583.97;2612520;54;20045;-72
2021/08/12 09:48:17;;;;;;;7.72;5.28;;;;;;;24.42;40.79;101583.13;2632389;36;20430;-72
2021/08/12 09:50:49;;;;;;;6.50;4.78;;;;;;;24.48;41.16;101577.75;2612378;54;20061;-72
2021/08/12 09:53:21;;;;;;;6.63;4.50;;;;;;;24.53;41.38;101581.69;2632727;36;20035;-71
2021/08/12 09:55:51;;;;;;;7.82;5.07;;;;;;;24.57;41.04;101584.91;2611344;54;20571;-72
2021/08/12 09:58:21;;;;;;;7.97;4.70;;;;;;;24.65;40.68;101587.53;2632860;36;20610;-71
2021/08/12 10:00:52;;;;;;;6.10;3.97;;;;;;;24.71;40.42;101590.41;2612612;54;20045;-71
2021/08/12 10:03:27;;;;;;;7.32;4.50;;;;;;;24.77;40.03;101583.13;2611547;54;20038;-73
2021/08/12 10:05:58;;;;;;;7.00;4.65;;;;;;;24.80;39.82;101583.56;2611597;54;20038;-71
2021/08/12 10:08:36;;;;;;;7.00;4.30;;;;;;;24.86;39.62;101584.66;2631501;36;20572;-71
2021/08/12 10:11:20;;;;;;;5.82;3.90;;;;;;;24.91;39.98;101587.69;2612030;54;20045;-71
2021/08/12 10:13:53;;;;;;;7.20;5.05;;;;;;;24.95;40.01;101588.97;2632690;36;20058;-71
2021/08/12 10:16:24;;;;;;;6.40;4.40;;;;;;;25.00;40.04;101591.16;2611380;54;20035;-71
2021/08/12 10:18:58;;;;;;;7.43;5.25;;;;;;;25.04;39.44;101593.31;2612081;54;20070;-71
2021/08/12 10:21:29;;;;;;;8.25;5.35;;;;;;;25.06;39.58;101585.59;2613069;39;20451;-71
2021/08/12 10:24:02;;;;;;;7.27;4.97;;;;;;;25.07;38.97;101592.06;2660618;36;20487;-70
2021/08/12 10:26:33;;;;;;;;;;;;;;;24.80;40.33;101593.88;2611743;54;20035;-71
2021/08/12 10:29:07;;;;;;;5.87;4.00;;;;;;;25.08;39.06;101589.03;2632176;36;19947;-72
2021/08/12 10:31:37;;;;;;;6.93;4.78;;;;;;;25.14;38.89;101601.31;2611327;54;20038;-72
2021/08/12 10:34:08;;;;;;;7.72;5.00;;;;;;;25.19;39.04;101593.19;2632544;36;20077;-72
2021/08/12 10:36:39;;;;;;;6.13;4.05;;;;;;;25.18;38.68;101583.91;2613237;54;20038;-72
2021/08/12 10:39:09;;;;;;;6.78;3.92;;;;;;;25.23;38.25;101582.41;2632822;36;20041;-71
2021/08/12 10:41:42;;;;;;;5.15;3.45;;;;;;;25.23;38.47;101576.78;2613296;54;20122;-71
2021/08/12 10:44:14;;;;;;;5.95;4.18;;;;;;;25.25;38.00;101574.69;2633345;36;20432;-72
2021/08/12 10:46:44;;;;;;;5.05;3.63;;;;;;;25.25;37.43;101567.16;2612703;54;20068;-72
2021/08/12 10:49:32;;;;;;;5.50;3.80;;;;;;;25.26;36.96;101566.06;2632934;36;20085;-72
2021/08/12 10:52:04;;;;;;;6.57;4.00;;;;;;;25.26;36.86;101568.88;2613707;54;20039;-73
2021/08/12 10:54:34;;;;;;;;;;;;;;;24.96;38.40;101573.91;2631017;36;20034;-72
2021/08/12 10:57:18;;;;;;;5.10;3.17;;;;;;;25.25;36.78;101569.94;2633937;36;20030;-72
2021/08/12 10:59:48;;;;;;;4.25;3.10;;;;;;;25.26;37.35;101568.00;2612782;54;20038;-72
2021/08/12 11:02:48;;;;;;;5.90;3.50;;;;;;;25.28;36.60;101568.69;2633274;36;20035;-73
2021/08/12 11:05:20;;;;;;;6.40;3.70;;;;;;;25.27;36.53;101573.41;2611545;54;20061;-69
2021/08/12 11:07:51;;;;;;;5.85;3.58;;;;;;;25.26;36.85;101568.88;2630373;36;20452;-69
2021/08/12 11:10:23;;;;;;;5.93;3.25;;;;;;;25.30;36.59;101569.31;2609946;54;20042;-69
2021/08/12 11:13:10;;;;;;;6.18;4.10;;;;;;;25.31;35.89;101568.22;2631985;36;20241;-69
2021/08/12 11:15:58;;;;;;;5.57;3.70;;;;;;;25.33;35.87;101561.34;2611161;54;20041;-69
2021/08/12 11:18:48;;;;;;;4.93;3.45;;;;;;;25.33;35.84;101568.88;2630827;36;20065;-69
2021/08/12 11:21:43;;;;;;;5.85;3.70;;;;;;;25.32;36.06;101559.63;2611009;54;20594;-69
2021/08/12 11:24:34;;;;;;;5.65;3.72;;;;;;;25.31;36.14;101560.69;2631854;36;20050;-69
2021/08/12 11:27:10;;;;;;;5.35;3.47;;;;;;;25.34;36.28;101559.41;2631081;36;20039;-69
2021/08/12 11:29:39;;;;;;;5.43;3.65;;;;;;;25.31;36.07;101545.81;2610498;54;20560;-69
2021/08/12 11:32:13;;;;;;;4.78;3.40;;;;;;;25.34;35.94;101556.63;2632411;36;20038;-68
2021/08/12 11:34:48;;;;;;;5.25;3.45;;;;;;;25.34;35.54;101565.00;2610530;54;20038;-69
2021/08/12 11:37:21;;;;;;;6.03;4.03;;;;;;;25.34;35.62;101553.81;2631968;36;20960;-70
2021/08/12 11:39:53;;;;;;;6.50;3.88;;;;;;;25.33;35.75;101561.34;2610554;54;20048;-70
2021/08/12 11:42:25;;;;;;;5.35;3.88;;;;;;;25.34;35.90;101559.41;2631700;36;20038;-69
2021/08/12 11:44:56;;;;;;;5.43;3.97;;;;;;;25.30;35.65;101563.69;2610940;54;20046;-69
2021/08/12 11:47:29;;;;;;;6.00;3.92;;;;;;;25.28;35.85;101565.88;2631967;36;20046;-69
2021/08/12 11:50:00;;;;;;;5.72;3.50;;;;;;;25.30;35.39;101575.75;2610169;54;20595;-68
2021/08/12 11:52:34;;;;;;;5.18;3.80;;;;;;;25.31;35.74;101571.88;2632721;36;20427;-69